Terminal Aerodrome Forecast
Issued by NWS

Home | Current Version | Previous Version | Text Only | Print | Product List | Glossary On
Versions: 1 2 3 4 5 6 7 8 9 10 11 12 13 14 15 16 17 18
838
FTUS46 KSGX 141120
TAFCRQ
TAF
KCRQ 141120Z 1412/1512 VRB04KT 5SM BR VCFG FEW002
      TEMPO 1412/1415 1/4SM FG VV001
     FM141530 VRB04KT 6SM HZ SKC
     FM142000 27008KT P6SM SKC
     FM150000 VRB05KT P6SM SKC=

USA.gov is the U.S. government's official web portal to all federal, state and local government web resources and services.